createdAt,value
2023-07-25T00:01:20.362Z,98088.16
2023-07-25T00:04:06.928Z,98085.38
2023-07-25T00:06:53.464Z,98077.47
2023-07-25T00:09:40.038Z,98037.88
2023-07-25T00:12:26.424Z,98039.88
2023-07-25T00:15:12.836Z,98072.78
2023-07-25T00:17:59.362Z,98020.78
2023-07-25T00:20:45.931Z,98047.50
2023-07-25T00:23:32.345Z,98056.22
2023-07-25T00:26:18.556Z,98071.78
2023-07-25T00:29:05.619Z,98065.91
2023-07-25T00:31:53.065Z,98076.19
2023-07-25T00:34:39.717Z,98064.38
2023-07-25T00:37:29.363Z,98034.28
2023-07-25T00:40:15.806Z,98063.44
2023-07-25T00:43:02.240Z,98045.41
2023-07-25T00:45:49.488Z,97988.53
2023-07-25T00:48:36.558Z,98044.50
2023-07-25T00:51:23.582Z,98035.16
2023-07-25T00:54:10.114Z,98007.25
2023-07-25T00:56:56.419Z,98041.19
2023-07-25T00:59:43.076Z,98044.00
2023-07-25T01:02:29.654Z,98039.72
2023-07-25T01:05:16.009Z,98030.41
2023-07-25T01:08:02.746Z,98022.78
2023-07-25T01:10:49.205Z,98023.25
2023-07-25T01:13:35.647Z,97984.94
2023-07-25T01:16:25.729Z,98001.25
2023-07-25T01:19:12.300Z,97985.25
2023-07-25T01:21:59.470Z,97989.63
2023-07-25T01:24:48.482Z,98014.28
2023-07-25T01:27:34.915Z,97979.03
2023-07-25T01:30:21.445Z,98030.53
2023-07-25T01:33:07.616Z,98015.88
2023-07-25T01:35:54.132Z,98006.75
2023-07-25T01:38:40.681Z,98014.47
2023-07-25T01:41:27.042Z,98015.41
2023-07-25T01:44:13.429Z,98004.06
2023-07-25T01:46:59.830Z,97994.66
2023-07-25T01:49:46.350Z,97994.59
2023-07-25T01:52:33.288Z,97957.91
2023-07-25T01:55:19.993Z,97969.78
2023-07-25T01:58:06.159Z,97949.25
2023-07-25T02:00:59.922Z,97972.59
2023-07-25T02:03:46.151Z,97968.22
2023-07-25T02:06:32.719Z,97976.09
2023-07-25T02:09:19.308Z,97973.53
2023-07-25T02:12:06.669Z,97973.53
2023-07-25T02:14:53.138Z,97965.88
2023-07-25T02:17:39.945Z,97983.03
2023-07-25T02:20:28.233Z,97965.41
2023-07-25T02:23:14.763Z,97975.53
2023-07-25T02:26:02.939Z,97986.44
2023-07-25T02:28:49.242Z,97989.69
2023-07-25T02:31:35.753Z,97979.84
2023-07-25T02:34:22.599Z,97986.56
2023-07-25T02:37:08.859Z,97938.72
2023-07-25T02:39:55.526Z,98010.31
2023-07-25T02:42:42.709Z,98003.66
2023-07-25T02:45:29.146Z,97946.72
2023-07-25T02:48:16.720Z,97994.75
2023-07-25T02:51:04.201Z,97983.84
2023-07-25T02:53:50.516Z,97979.84
2023-07-25T02:56:36.898Z,97953.97
2023-07-25T02:59:23.425Z,97980.34
2023-07-25T03:02:11.445Z,97944.72
2023-07-25T03:04:58.174Z,97970.03
2023-07-25T03:07:44.991Z,97960.25
2023-07-25T03:10:31.617Z,97952.47
2023-07-25T03:13:18.151Z,97948.91
2023-07-25T03:16:05.036Z,97936.66
2023-07-25T03:18:51.587Z,97928.91
2023-07-25T03:21:38.119Z,97917.66
2023-07-25T03:24:24.484Z,97893.72
2023-07-25T03:27:11.153Z,97918.16
2023-07-25T03:29:57.338Z,97886.09
2023-07-25T03:32:44.062Z,97875.84
2023-07-25T03:35:30.722Z,97940.56
2023-07-25T03:38:17.240Z,97942.31
2023-07-25T03:41:03.860Z,97944.94
2023-07-25T03:43:49.959Z,97919.19
2023-07-25T03:46:36.639Z,97940.53
2023-07-25T03:49:23.047Z,97914.03
2023-07-25T03:52:10.450Z,97905.88
2023-07-25T03:54:56.992Z,97931.72
2023-07-25T03:57:43.499Z,97936.34
2023-07-25T04:00:29.972Z,97939.94
2023-07-25T04:03:16.474Z,97907.63
2023-07-25T04:06:02.999Z,97940.75
2023-07-25T04:08:49.289Z,97940.69
2023-07-25T04:11:35.820Z,97911.72
2023-07-25T04:14:22.794Z,97886.84
2023-07-25T04:17:09.225Z,97905.41
2023-07-25T04:19:56.062Z,97928.19
2023-07-25T04:22:42.587Z,97900.97
2023-07-25T04:25:29.004Z,97928.75
2023-07-25T04:28:15.639Z,97928.09
2023-07-25T04:31:01.878Z,97942.41
2023-07-25T04:33:48.251Z,97872.16
2023-07-25T04:36:34.773Z,97947.81
2023-07-25T04:39:21.221Z,97954.59
2023-07-25T04:42:07.548Z,97961.50
2023-07-25T04:44:54.883Z,97957.97
2023-07-25T04:47:42.411Z,97952.91
2023-07-25T04:50:28.699Z,97959.63
2023-07-25T04:53:15.358Z,97969.81
2023-07-25T04:56:02.563Z,97976.00
2023-07-25T04:58:48.989Z,97951.06
2023-07-25T05:01:36.017Z,97968.78
2023-07-25T05:04:22.742Z,97977.31
2023-07-25T05:07:09.200Z,97954.19
2023-07-25T05:09:55.750Z,97952.47
2023-07-25T05:12:42.225Z,97974.13
2023-07-25T05:15:28.794Z,97982.28
2023-07-25T05:18:15.424Z,97971.34
2023-07-25T05:21:01.729Z,97981.72
2023-07-25T05:23:48.263Z,97984.25
2023-07-25T05:26:34.594Z,97950.00
2023-07-25T05:29:21.344Z,97990.78
2023-07-25T05:32:08.264Z,97980.44
2023-07-25T05:34:54.469Z,97965.47
2023-07-25T05:37:41.160Z,97963.63
2023-07-25T05:40:27.849Z,97960.47
2023-07-25T05:43:16.276Z,97979.16
2023-07-25T05:46:03.159Z,97970.53
2023-07-25T05:48:49.590Z,97977.28
2023-07-25T05:51:36.126Z,97964.72
2023-07-25T05:54:22.728Z,97941.94
2023-07-25T05:57:09.127Z,97977.00
2023-07-25T05:59:55.699Z,97936.84
2023-07-25T06:02:42.276Z,97958.31
2023-07-25T06:05:28.726Z,97946.16
2023-07-25T06:08:15.275Z,97954.53
2023-07-25T06:11:01.670Z,97961.81
2023-07-25T06:13:50.279Z,97974.56
2023-07-25T06:16:36.998Z,97976.28
2023-07-25T06:19:23.722Z,97980.47
2023-07-25T06:22:10.526Z,97942.78
2023-07-25T06:24:56.850Z,97965.41
2023-07-25T06:27:43.150Z,97975.28
2023-07-25T06:30:29.558Z,97981.03
2023-07-25T06:33:16.650Z,97959.38
2023-07-25T06:36:03.040Z,97954.66
2023-07-25T06:38:49.396Z,97966.28
2023-07-25T06:41:36.109Z,97969.41
2023-07-25T06:44:22.957Z,97878.56
2023-07-25T06:47:09.244Z,97961.94
2023-07-25T06:49:55.873Z,97956.63
2023-07-25T06:52:42.273Z,97956.06
2023-07-25T06:55:28.722Z,97950.97
2023-07-25T06:58:15.252Z,97961.41
2023-07-25T07:01:01.695Z,97950.03
2023-07-25T07:03:50.449Z,97915.47
2023-07-25T07:06:36.896Z,97919.06
2023-07-25T07:09:23.431Z,97904.72
2023-07-25T07:12:10.012Z,97917.63
2023-07-25T07:14:56.517Z,97890.63
2023-07-25T07:17:43.240Z,97906.09
2023-07-25T07:20:29.494Z,97905.03
2023-07-25T07:23:16.751Z,97901.91
2023-07-25T07:26:03.541Z,97890.25
2023-07-25T07:28:49.736Z,97889.75
2023-07-25T07:31:36.314Z,97912.38
2023-07-25T07:34:22.898Z,97867.34
2023-07-25T07:37:09.389Z,97897.31
2023-07-25T07:39:55.776Z,97868.69
2023-07-25T07:42:42.381Z,97890.09
2023-07-25T07:45:30.880Z,97883.72
2023-07-25T07:48:17.455Z,97919.94
2023-07-25T07:51:05.184Z,97917.28
2023-07-25T07:53:52.050Z,97915.56
2023-07-25T07:56:38.174Z,97911.81
2023-07-25T07:59:24.739Z,97917.81
2023-07-25T08:02:11.932Z,97906.94
2023-07-25T08:04:58.608Z,97906.69
2023-07-25T08:07:45.057Z,97888.06
2023-07-25T08:10:31.386Z,97896.53
2023-07-25T08:13:17.811Z,97910.50
2023-07-25T08:16:05.690Z,97915.97
2023-07-25T08:18:52.288Z,97915.91
2023-07-25T08:21:39.094Z,97870.81
2023-07-25T08:24:25.764Z,97866.47
2023-07-25T08:27:12.101Z,97888.09
2023-07-25T08:29:58.269Z,97900.34
2023-07-25T08:32:44.822Z,97907.63
2023-07-25T08:35:31.513Z,97905.94
2023-07-25T08:38:17.951Z,97897.28
2023-07-25T08:41:10.110Z,97897.75
2023-07-25T08:44:02.050Z,97896.31
2023-07-25T08:46:53.033Z,97896.38
2023-07-25T08:49:41.723Z,97884.66
2023-07-25T08:52:32.133Z,97903.38
2023-07-25T08:55:19.431Z,97902.63
2023-07-25T08:58:06.017Z,97867.13
2023-07-25T09:03:41.211Z,97894.72
2023-07-25T09:06:28.648Z,97890.63
2023-07-25T09:09:14.946Z,97880.44
2023-07-25T09:12:01.617Z,97892.44
2023-07-25T09:14:47.994Z,97891.03
2023-07-25T09:17:34.318Z,97889.38
2023-07-25T09:20:21.060Z,97888.88
2023-07-25T09:23:07.398Z,97888.28
2023-07-25T09:26:08.065Z,97883.66
2023-07-25T09:29:00.165Z,97863.63
2023-07-25T09:31:47.765Z,97877.59
2023-07-25T09:34:35.412Z,97841.31
2023-07-25T09:37:24.117Z,97873.56
2023-07-25T09:40:12.254Z,97857.75
2023-07-25T09:42:58.592Z,97870.28
2023-07-25T09:45:46.049Z,97867.84
2023-07-25T09:48:33.812Z,97864.91
2023-07-25T09:51:20.164Z,97868.66
2023-07-25T09:54:09.293Z,97848.66
2023-07-25T09:56:55.704Z,97869.78
2023-07-25T09:59:43.211Z,97876.63
2023-07-25T10:02:29.796Z,97877.59
2023-07-25T10:05:16.255Z,97855.88
2023-07-25T10:08:03.116Z,97829.47
2023-07-25T10:10:49.643Z,97861.13
2023-07-25T10:13:36.328Z,97842.28
2023-07-25T10:16:23.625Z,97847.47
2023-07-25T10:19:10.023Z,97839.00
2023-07-25T10:21:56.604Z,97865.19
2023-07-25T10:24:42.926Z,97864.09
2023-07-25T10:27:29.646Z,97867.88
2023-07-25T10:30:25.453Z,97867.47
2023-07-25T10:33:16.704Z,97867.09
2023-07-25T10:36:03.162Z,97863.97
2023-07-25T10:38:49.898Z,97871.47
2023-07-25T10:41:36.419Z,97873.53
2023-07-25T10:44:38.410Z,97872.53
2023-07-25T10:47:49.322Z,97845.56
2023-07-25T10:50:44.684Z,97878.03
2023-07-25T10:53:31.137Z,97869.78
2023-07-25T10:56:17.683Z,97871.78
2023-07-25T10:59:11.691Z,97867.47
2023-07-25T11:02:00.435Z,97864.56
2023-07-25T11:04:48.575Z,97864.28
2023-07-25T11:07:35.437Z,97874.84
2023-07-25T11:10:27.029Z,97878.47
2023-07-25T11:13:14.009Z,97885.06
2023-07-25T11:16:02.720Z,97895.00
2023-07-25T11:18:51.033Z,97908.47
2023-07-25T11:21:42.352Z,97899.53
2023-07-25T11:24:28.625Z,97891.94
2023-07-25T11:27:15.626Z,97896.63
2023-07-25T11:30:12.245Z,97907.56
2023-07-25T11:32:58.653Z,97895.13
2023-07-25T11:35:45.702Z,97932.47
2023-07-25T11:38:35.153Z,97936.63
2023-07-25T11:41:21.735Z,97961.44
2023-07-25T11:44:13.478Z,97973.03
2023-07-25T11:46:59.948Z,97949.22
2023-07-25T11:49:53.692Z,97974.84
2023-07-25T11:52:47.001Z,97935.09
2023-07-25T11:55:33.317Z,97985.63
2023-07-25T11:58:20.645Z,97991.81
2023-07-25T12:01:10.217Z,97992.81
2023-07-25T12:03:56.837Z,98001.59
2023-07-25T12:06:43.741Z,98000.72
2023-07-25T12:09:30.314Z,97997.72
2023-07-25T12:12:16.599Z,97995.44
2023-07-25T12:15:03.907Z,97967.25
2023-07-25T12:17:50.587Z,98003.44
2023-07-25T12:20:52.443Z,97999.41
2023-07-25T12:23:44.554Z,97998.47
2023-07-25T12:26:43.764Z,97978.28
2023-07-25T12:29:30.190Z,97980.56
2023-07-25T12:32:16.779Z,98012.06
2023-07-25T12:35:03.428Z,97995.00
2023-07-25T12:37:49.553Z,98010.66
2023-07-25T12:40:36.093Z,98005.28
2023-07-25T12:43:22.595Z,97913.69
2023-07-25T12:46:09.103Z,98016.31
2023-07-25T12:48:55.746Z,97999.50
2023-07-25T12:51:43.404Z,97996.31
2023-07-25T12:54:29.651Z,97981.31
2023-07-25T12:57:16.324Z,98012.44
2023-07-25T13:00:04.904Z,97979.31
2023-07-25T13:02:53.266Z,97998.97
2023-07-25T13:05:39.631Z,97990.03
2023-07-25T13:08:26.149Z,98017.63
2023-07-25T13:11:12.838Z,98027.47
2023-07-25T13:13:59.443Z,98031.09
2023-07-25T13:16:45.833Z,98018.22
2023-07-25T13:19:32.252Z,98031.03
2023-07-25T13:22:18.724Z,98016.84
2023-07-25T13:25:05.944Z,97997.97
2023-07-25T13:27:52.520Z,98018.69
2023-07-25T13:30:38.840Z,98044.38
2023-07-25T13:33:25.297Z,98039.78
2023-07-25T13:36:11.655Z,98044.78
2023-07-25T13:38:58.136Z,97987.66
2023-07-25T13:41:44.425Z,98009.19
2023-07-25T13:44:30.876Z,98031.06
2023-07-25T13:47:17.761Z,98026.44
2023-07-25T13:50:04.182Z,98027.13
2023-07-25T13:52:52.785Z,98023.53
2023-07-25T13:55:39.225Z,97998.88
2023-07-25T13:58:25.803Z,98027.47
2023-07-25T14:01:12.298Z,98018.69
2023-07-25T14:03:58.753Z,98037.41
2023-07-25T14:06:45.615Z,98006.28
2023-07-25T14:09:31.817Z,98036.63
2023-07-25T14:12:18.012Z,98045.75
2023-07-25T14:15:04.970Z,98030.69
2023-07-25T14:17:51.472Z,98034.13
2023-07-25T14:20:39.333Z,98032.69
2023-07-25T14:23:25.847Z,98022.00
2023-07-25T14:26:12.230Z,98029.66
2023-07-25T14:28:59.220Z,98030.53
2023-07-25T14:31:45.845Z,98019.97
2023-07-25T14:34:32.269Z,97972.75
2023-07-25T14:37:19.033Z,98019.81
2023-07-25T14:40:07.398Z,98014.56
2023-07-25T14:42:54.172Z,98032.25
2023-07-25T14:45:40.410Z,98005.22
2023-07-25T14:48:27.014Z,98038.72
2023-07-25T14:51:13.452Z,98016.81
2023-07-25T14:54:00.011Z,98026.16
2023-07-25T14:56:46.450Z,98016.22
2023-07-25T14:59:33.154Z,98057.47
2023-07-25T15:02:19.885Z,98064.41
2023-07-25T15:05:06.805Z,98027.31
2023-07-25T15:07:54.059Z,98057.72
2023-07-25T15:10:41.635Z,98061.00
2023-07-25T15:13:28.016Z,98009.06
2023-07-25T15:16:14.634Z,98059.47
2023-07-25T15:19:00.904Z,98050.28
2023-07-25T15:21:47.600Z,98076.41
2023-07-25T15:24:33.874Z,98065.66
2023-07-25T15:27:20.985Z,98072.56
2023-07-25T15:30:08.229Z,98075.50
2023-07-25T15:32:54.764Z,98029.00
2023-07-25T15:35:41.002Z,98048.91
2023-07-25T15:38:27.262Z,98032.88
2023-07-25T15:41:13.813Z,98060.09
2023-07-25T15:44:00.024Z,98038.34
2023-07-25T15:46:46.846Z,98058.59
2023-07-25T15:49:33.290Z,98094.09
2023-07-25T15:52:19.588Z,98065.19
2023-07-25T15:55:06.318Z,98096.53
2023-07-25T15:57:52.991Z,98082.66
2023-07-25T16:00:39.622Z,98106.56
2023-07-25T16:03:25.915Z,98065.72
2023-07-25T16:06:12.546Z,98063.69
2023-07-25T16:08:59.128Z,98101.75
2023-07-25T16:11:45.485Z,98108.97
2023-07-25T16:14:31.794Z,98097.28
2023-07-25T16:17:18.505Z,98101.53
2023-07-25T16:20:05.775Z,98123.78
2023-07-25T16:22:51.975Z,98067.44
2023-07-25T16:25:38.572Z,98097.84
2023-07-25T16:28:25.567Z,98140.59
2023-07-25T16:31:31.025Z,98137.25
2023-07-25T16:34:18.042Z,98092.81
2023-07-25T16:37:04.822Z,98153.63
2023-07-25T16:39:51.300Z,98114.00
2023-07-25T16:42:38.274Z,98108.31
2023-07-25T16:45:24.617Z,98166.25
2023-07-25T16:48:10.927Z,98152.25
2023-07-25T16:50:57.076Z,98166.78
2023-07-25T16:53:43.719Z,98166.78
2023-07-25T16:56:30.480Z,98176.94
2023-07-25T16:59:16.950Z,98179.44
2023-07-25T17:02:03.397Z,98115.59
2023-07-25T17:04:54.142Z,98172.00
2023-07-25T17:07:40.564Z,98138.78
2023-07-25T17:10:27.249Z,98161.69
2023-07-25T17:13:15.095Z,98187.75
2023-07-25T17:16:02.877Z,98177.31
2023-07-25T17:18:49.130Z,98189.91
2023-07-25T17:21:40.436Z,98168.84
2023-07-25T17:24:29.418Z,98213.13
2023-07-25T17:27:15.801Z,98220.28
2023-07-25T17:30:02.301Z,98197.19
2023-07-25T17:32:49.090Z,98226.81
2023-07-25T17:35:38.301Z,98239.03
2023-07-25T17:38:25.386Z,98234.03
2023-07-25T17:41:12.287Z,98193.25
2023-07-25T17:43:58.933Z,98253.28
2023-07-25T17:46:45.049Z,98258.59
2023-07-25T17:49:31.475Z,98258.03
2023-07-25T17:52:18.033Z,98252.53
2023-07-25T17:55:04.753Z,98268.03
2023-07-25T17:57:51.410Z,98282.50
2023-07-25T18:00:38.618Z,98260.47
2023-07-25T18:03:25.019Z,98268.63
2023-07-25T18:06:11.525Z,98226.66
2023-07-25T18:08:58.133Z,98253.06
2023-07-25T18:11:44.623Z,98263.31
2023-07-25T18:14:31.349Z,98287.16
2023-07-25T18:17:17.920Z,98267.66
2023-07-25T18:20:04.941Z,98290.66
2023-07-25T18:22:51.824Z,98302.91
2023-07-25T18:25:40.214Z,98296.06
2023-07-25T18:28:27.656Z,98262.13
2023-07-25T18:31:14.142Z,98273.97
2023-07-25T18:34:00.837Z,98277.22
2023-07-25T18:36:47.379Z,98266.03
2023-07-25T18:39:33.841Z,98319.16
2023-07-25T18:42:20.487Z,98286.34
2023-07-25T18:45:07.522Z,98275.38
2023-07-25T18:47:54.066Z,98330.84
2023-07-25T18:50:40.175Z,98346.28
2023-07-25T18:53:26.708Z,98291.09
2023-07-25T18:56:12.796Z,98323.84
2023-07-25T18:58:59.157Z,98341.16
2023-07-25T19:01:45.690Z,98356.69
2023-07-25T19:04:31.960Z,98372.91
2023-07-25T19:07:19.571Z,98345.00
2023-07-25T19:10:06.419Z,98356.25
2023-07-25T19:12:53.152Z,98388.72
2023-07-25T19:15:39.643Z,98392.50
2023-07-25T19:18:26.389Z,98391.75
2023-07-25T19:21:12.502Z,98408.06
2023-07-25T19:23:58.761Z,98407.22
2023-07-25T19:26:45.172Z,98392.19
2023-07-25T19:29:31.687Z,98415.38
2023-07-25T19:32:17.997Z,98420.31
2023-07-25T19:35:05.297Z,98411.88
2023-07-25T19:37:52.245Z,98429.91
2023-07-25T19:40:38.857Z,98408.13
2023-07-25T19:43:25.117Z,98448.78
2023-07-25T19:46:11.942Z,98450.34
2023-07-25T19:48:58.372Z,98411.28
2023-07-25T19:51:45.514Z,98436.19
2023-07-25T19:54:32.243Z,98454.09
2023-07-25T19:57:18.817Z,98453.50
2023-07-25T20:00:06.059Z,98436.25
2023-07-25T20:02:52.314Z,98414.63
2023-07-25T20:05:38.673Z,98408.06
2023-07-25T20:08:24.918Z,98379.16
2023-07-25T20:11:11.392Z,98479.91
2023-07-25T20:13:58.153Z,98466.44
2023-07-25T20:16:44.562Z,98417.88
2023-07-25T20:19:30.885Z,98483.78
2023-07-25T20:22:17.262Z,98487.03
2023-07-25T20:25:03.873Z,98466.91
2023-07-25T20:27:50.127Z,98490.84
2023-07-25T20:30:36.309Z,98492.69
2023-07-25T20:33:22.920Z,98504.66
2023-07-25T20:36:09.982Z,98491.00
2023-07-25T20:38:56.567Z,98479.03
2023-07-25T20:41:43.429Z,98518.78
2023-07-25T20:44:29.908Z,98495.72
2023-07-25T20:47:16.474Z,98530.03
2023-07-25T20:50:05.222Z,98529.25
2023-07-25T20:52:52.100Z,98509.91
2023-07-25T20:55:38.790Z,98532.84
2023-07-25T20:58:25.293Z,98519.09
2023-07-25T21:01:11.792Z,98534.47
2023-07-25T21:03:58.330Z,98523.56
2023-07-25T21:06:44.565Z,98488.50
2023-07-25T21:09:31.078Z,98536.53
2023-07-25T21:12:17.667Z,98525.47
2023-07-25T21:15:04.471Z,98497.28
2023-07-25T21:18:02.803Z,98537.56
2023-07-25T21:20:57.224Z,98543.25
2023-07-25T21:23:43.495Z,98511.78
2023-07-25T21:26:29.951Z,98521.28
2023-07-25T21:29:16.596Z,98562.28
2023-07-25T21:32:03.010Z,98510.88
2023-07-25T21:34:49.382Z,98497.50
2023-07-25T21:37:36.038Z,98559.16
2023-07-25T21:40:22.490Z,98531.13
2023-07-25T21:43:08.602Z,98550.81
2023-07-25T21:45:56.346Z,98565.31
2023-07-25T21:48:43.004Z,98573.84
2023-07-25T21:51:29.617Z,98574.75
2023-07-25T21:54:15.902Z,98537.13
2023-07-25T21:57:02.345Z,98580.75
2023-07-25T21:59:48.910Z,98574.03
2023-07-25T22:02:35.090Z,98583.56
2023-07-25T22:05:21.552Z,98579.97
2023-07-25T22:08:09.274Z,98562.91
2023-07-25T22:10:56.204Z,98523.63
2023-07-25T22:13:42.537Z,98582.91
2023-07-25T22:16:28.751Z,98576.94
2023-07-25T22:19:15.037Z,98543.59
2023-07-25T22:22:01.592Z,98591.84
2023-07-25T22:24:47.832Z,98579.75
2023-07-25T22:27:34.361Z,98580.91
2023-07-25T22:30:21.206Z,98591.84
2023-07-25T22:33:07.582Z,98590.41
2023-07-25T22:35:54.183Z,98569.84
2023-07-25T22:38:40.399Z,98564.72
2023-07-25T22:41:26.635Z,98599.88
2023-07-25T22:44:12.898Z,98599.03
2023-07-25T22:46:59.394Z,98508.41
2023-07-25T22:49:51.070Z,98580.38
2023-07-25T22:52:37.626Z,98586.31
2023-07-25T22:55:24.059Z,98599.94
2023-07-25T22:58:10.305Z,98617.34
2023-07-25T23:00:56.958Z,98593.97
2023-07-25T23:03:43.554Z,98606.78
2023-07-25T23:06:30.424Z,98564.84
2023-07-25T23:09:18.200Z,98587.84
2023-07-25T23:12:04.653Z,98581.06
2023-07-25T23:14:51.178Z,98580.91
2023-07-25T23:17:37.456Z,98598.81
2023-07-25T23:20:23.897Z,98592.81
2023-07-25T23:23:10.099Z,98622.78
2023-07-25T23:25:56.512Z,98633.84
2023-07-25T23:28:42.793Z,98592.88
2023-07-25T23:31:29.589Z,98606.66
2023-07-25T23:34:17.635Z,98623.63
2023-07-25T23:37:04.492Z,98616.63
2023-07-25T23:39:50.774Z,98624.94
2023-07-25T23:42:36.996Z,98622.44
2023-07-25T23:45:23.486Z,98603.69
2023-07-25T23:48:09.618Z,98593.38
2023-07-25T23:50:56.166Z,98614.88
2023-07-25T23:53:42.680Z,98628.56
2023-07-25T23:56:29.161Z,98611.53
2023-07-25T23:59:15.842Z,98625.84
